Time;durP1;ratioP1;P1;durP2;ratioP2;P2;SDS_P1;SDS_P2;PMS_P1;PMS_P2;Temp;Humidity;BMP_temperature;BMP_pressure;BME280_temperature;BME280_humidity;BME280_pressure;Samples;Min_cycle;Max_cycle;Signal;HPM_P1;HPM_P2
2022/07/23 00:01:34;;;;;;;8.17;7.37;;;17.90;99.90;;;17.89;72.98;101193.47;5027445;28;20439;-70
2022/07/23 00:04:04;;;;;;;10.00;7.13;;;17.80;99.90;;;17.78;73.79;101182.31;5026058;28;20918;-71
2022/07/23 00:06:33;;;;;;;8.00;6.87;;;17.80;99.90;;;17.89;73.24;101186.09;5022450;28;20423;-71
2022/07/23 00:09:02;;;;;;;7.93;6.33;;;17.80;99.90;;;17.76;73.36;101176.25;5024131;28;20454;-72
2022/07/23 00:11:32;;;;;;;9.40;6.40;;;17.70;99.90;;;17.91;72.95;101178.44;5024751;28;20459;-71
2022/07/23 00:14:01;;;;;;;8.80;6.83;;;17.80;99.90;;;17.75;73.29;101171.84;5024929;28;20447;-70
2022/07/23 00:16:30;;;;;;;8.20;7.13;;;17.70;99.90;;;17.64;73.62;101175.44;5027411;28;21023;-72
2022/07/23 00:19:01;;;;;;;7.23;5.90;;;17.70;99.90;;;17.77;73.09;101175.16;5027610;28;20435;-71
2022/07/23 00:21:32;;;;;;;12.50;7.70;;;17.70;99.90;;;17.86;73.00;101180.28;5025685;28;20432;-71
2022/07/23 00:24:01;;;;;;;9.73;6.00;;;17.80;99.90;;;17.88;72.46;101175.38;5028521;28;20526;-69
2022/07/23 00:26:30;;;;;;;9.40;6.40;;;17.80;99.90;;;17.92;72.20;101174.63;5027391;28;20522;-71
2022/07/23 00:28:59;;;;;;;6.90;5.97;;;17.80;99.90;;;18.07;71.40;101168.63;5012337;28;20444;-74
2022/07/23 00:31:28;;;;;;;7.50;5.73;;;17.90;99.90;;;18.01;71.46;101164.97;5026911;28;20430;-71
2022/07/23 00:34:00;;;;;;;7.17;6.30;;;17.90;99.90;;;17.91;71.73;101164.75;5027834;28;20559;-71
2022/07/23 00:36:32;;;;;;;8.60;6.10;;;17.90;99.90;;;17.91;71.73;101166.69;5028579;28;20448;-71
2022/07/23 00:39:01;;;;;;;6.90;6.30;;;17.80;99.90;;;17.81;71.47;101159.09;5015375;28;20541;-71
2022/07/23 00:41:31;;;;;;;7.90;6.40;;;17.70;99.90;;;17.74;71.72;101161.97;5027641;28;20526;-69
2022/07/23 00:44:19;;;;;;;7.53;6.17;;;17.70;99.90;;;17.87;71.48;101162.75;5030379;28;21048;-71
2022/07/23 00:46:52;;;;;;;6.63;5.97;;;17.70;99.90;;;17.96;70.94;101166.78;5027529;28;20990;-70
2022/07/23 00:49:22;;;;;;;8.83;7.50;;;17.80;99.90;;;17.89;70.79;101174.31;5036414;28;20533;-71
2022/07/23 00:51:53;;;;;;;7.83;6.00;;;17.80;99.90;;;17.81;71.59;101164.59;5037439;28;20423;-70
2022/07/23 00:54:26;;;;;;;7.23;5.83;;;17.70;99.90;;;17.78;71.89;101165.06;5011060;28;20446;-71
2022/07/23 00:56:55;;;;;;;7.30;5.80;;;17.70;99.90;;;17.78;70.82;101171.34;5031988;28;20509;-70
2022/07/23 00:59:24;;;;;;;7.60;6.30;;;17.70;99.90;;;17.80;71.19;101174.69;5032554;28;20446;-72
2022/07/23 01:01:53;;;;;;;8.40;7.07;;;17.70;99.90;;;17.73;71.42;101181.38;5030478;28;20442;-71
2022/07/23 01:04:22;;;;;;;8.50;6.77;;;17.70;99.90;;;17.74;71.29;101189.34;5009309;28;20443;-71
2022/07/23 01:06:53;;;;;;;8.20;5.73;;;17.70;99.90;;;17.52;72.35;101174.63;5029833;28;20762;-71
2022/07/23 01:09:22;;;;;;;7.40;6.00;;;17.60;99.90;;;17.50;72.22;101178.66;5024029;28;21108;-71
2022/07/23 01:11:54;;;;;;;8.60;5.67;;;17.50;99.90;;;17.41;72.54;101180.94;5027934;28;20852;-71
2022/07/23 01:14:24;;;;;;;7.53;6.50;;;17.40;99.90;;;17.27;72.73;101177.63;5026734;28;20482;-71
2022/07/23 01:16:53;;;;;;;8.33;6.90;;;17.30;99.90;;;17.26;72.88;101173.22;5011137;28;20419;-70
2022/07/23 01:19:22;;;;;;;9.70;7.70;;;17.30;99.90;;;17.26;72.94;101169.66;5028057;28;20420;-70
2022/07/23 01:21:57;;;;;;;13.73;6.87;;;17.20;99.90;;;17.25;73.07;101166.09;5008874;28;20423;-69
2022/07/23 01:24:27;;;;;;;9.50;6.23;;;17.20;99.90;;;17.15;73.31;101159.56;5026838;28;20452;-71
2022/07/23 01:27:05;;;;;;;8.83;7.77;;;17.20;99.90;;;17.12;73.22;101160.88;5009462;28;20460;-69
2022/07/23 01:29:37;;;;;;;7.13;6.43;;;17.10;99.90;;;17.20;73.04;101151.47;5018830;28;20448;-72
2022/07/23 01:32:11;;;;;;;9.23;6.83;;;17.10;99.90;;;17.20;73.56;101151.47;5029095;28;20561;-69
2022/07/23 01:34:40;;;;;;;7.87;6.90;;;17.10;99.90;;;17.13;73.45;101153.50;5023009;28;20478;-71
2022/07/23 01:37:09;;;;;;;9.23;7.10;;;17.10;99.90;;;17.03;73.65;101150.53;5034193;28;20534;-71
2022/07/23 01:39:40;;;;;;;10.10;7.27;;;17.00;99.90;;;16.94;73.89;101153.63;5021302;28;20655;-71
2022/07/23 01:42:09;;;;;;;7.83;7.03;;;17.00;99.90;;;16.91;73.95;101147.78;5031653;28;20471;-72
2022/07/23 01:44:38;;;;;;;9.53;7.37;;;16.90;99.90;;;17.01;73.37;101147.19;5040202;28;20432;-71
2022/07/23 01:47:10;;;;;;;10.13;7.67;;;16.90;99.90;;;16.93;73.99;101146.50;5006772;28;20531;-72
2022/07/23 01:49:39;;;;;;;10.70;8.10;;;16.90;99.90;;;16.85;74.22;101146.84;5010408;28;20488;-73
2022/07/23 01:52:28;;;;;;;7.93;5.60;;;16.80;99.90;;;16.74;74.53;101142.22;5013386;28;20478;-70
2022/07/23 01:54:58;;;;;;;11.07;6.60;;;16.70;99.90;;;16.80;74.17;101137.69;5027081;28;20842;-70
2022/07/23 01:57:27;;;;;;;9.23;7.53;;;16.80;99.90;;;16.78;74.50;101137.09;5028295;28;20513;-71
2022/07/23 01:59:56;;;;;;;6.93;6.20;;;16.80;99.90;;;16.76;74.64;101144.69;5026456;28;20938;-70
2022/07/23 02:02:25;;;;;;;7.40;6.60;;;16.70;99.90;;;16.78;74.88;101134.38;5028410;28;20480;-70
2022/07/23 02:04:55;;;;;;;11.03;8.07;;;16.70;99.90;;;16.88;74.48;101138.19;5029054;28;20942;-69
2022/07/23 02:07:27;;;;;;;8.03;6.40;;;16.80;99.90;;;16.83;74.46;101139.97;5024282;28;20988;-70
2022/07/23 02:10:02;;;;;;;12.43;7.00;;;16.80;99.90;;;16.79;74.63;101150.53;5006975;28;20453;-71
2022/07/23 02:12:31;;;;;;;7.47;5.90;;;16.70;99.90;;;16.88;74.34;101140.91;5027440;28;20538;-70
2022/07/23 02:15:00;;;;;;;10.20;7.50;;;16.80;99.90;;;16.97;73.96;101124.16;5011761;28;20444;-69
2022/07/23 02:17:29;;;;;;;7.57;6.57;;;16.80;99.90;;;17.03;73.65;101129.50;5016603;28;20437;-69
2022/07/23 02:19:58;;;;;;;10.53;6.43;;;16.90;99.90;;;16.91;74.06;101132.22;5027130;28;20411;-71
2022/07/23 02:22:27;;;;;;;7.87;6.97;;;16.80;99.90;;;16.97;73.67;101135.09;5027230;28;20460;-71
2022/07/23 02:24:56;;;;;;;9.50;7.17;;;16.80;99.90;;;16.93;73.65;101132.84;5013847;28;20507;-70
2022/07/23 02:27:28;;;;;;;10.57;7.17;;;16.80;99.90;;;16.88;73.86;101120.94;5020313;28;20510;-74
2022/07/23 02:29:57;;;;;;;9.30;6.83;;;16.80;99.90;;;16.79;74.20;101134.16;5026293;28;20431;-73
2022/07/23 02:32:26;;;;;;;8.27;6.73;;;16.70;99.90;;;16.80;74.07;101134.94;5028467;28;20459;-70
2022/07/23 02:34:55;;;;;;;9.73;6.20;;;16.70;99.90;;;16.74;74.68;101138.66;5022312;28;20459;-72
2022/07/23 02:37:23;;;;;;;8.03;6.50;;;16.70;99.90;;;16.85;73.85;101138.63;5027229;28;20444;-71
2022/07/23 02:39:52;;;;;;;9.77;6.77;;;16.70;99.90;;;16.81;74.09;101133.88;5028463;28;20418;-71
2022/07/23 02:42:23;;;;;;;9.87;5.60;;;16.70;99.90;;;16.85;73.64;101135.06;5023687;28;20498;-71
2022/07/23 02:44:53;;;;;;;10.50;6.00;;;16.70;99.90;;;16.78;73.90;101139.84;5021986;28;20510;-72
2022/07/23 02:47:22;;;;;;;7.73;6.10;;;16.70;99.90;;;16.77;73.89;101136.28;5013383;28;20466;-72
2022/07/23 02:49:51;;;;;;;11.10;6.63;;;16.70;99.90;;;16.69;74.23;101144.00;5023835;28;20444;-71
2022/07/23 02:52:20;;;;;;;8.40;6.47;;;16.60;99.90;;;16.60;74.61;101145.41;5020166;28;20453;-71
2022/07/23 02:54:49;;;;;;;6.47;5.87;;;16.50;99.90;;;16.47;74.86;101155.44;5021341;28;20422;-71
2022/07/23 02:57:18;;;;;;;7.20;5.90;;;16.50;99.90;;;16.47;75.04;101157.34;5025264;28;20452;-70
2022/07/23 02:59:47;;;;;;;12.43;5.20;;;16.40;99.90;;;16.46;75.07;101151.03;5029021;28;20769;-71
2022/07/23 03:02:17;;;;;;;10.50;5.93;;;16.40;99.90;;;16.39;75.04;101155.78;5014411;28;20489;-71
2022/07/23 03:04:46;;;;;;;14.80;5.93;;;16.40;99.90;;;16.34;75.26;101146.63;5010492;28;20499;-71
2022/07/23 03:07:15;;;;;;;10.60;5.90;;;16.30;99.90;;;16.37;75.23;101148.88;5026389;28;20436;-70
2022/07/23 03:09:44;;;;;;;6.87;6.17;;;16.30;99.90;;;16.34;75.08;101143.91;5025244;28;20965;-72
2022/07/23 03:12:12;;;;;;;5.60;4.67;;;16.30;99.90;;;16.30;74.95;101150.91;5007186;28;20465;-70
2022/07/23 03:14:42;;;;;;;7.40;6.00;;;16.20;99.90;;;16.19;75.59;101144.34;5011018;28;20467;-72
2022/07/23 03:17:11;;;;;;;9.47;5.87;;;16.10;99.90;;;16.25;75.20;101151.59;5008309;28;20452;-71
2022/07/23 03:19:41;;;;;;;6.27;4.27;;;16.10;99.90;;;16.16;75.71;101154.91;5012059;28;20504;-73
2022/07/23 03:22:10;;;;;;;7.80;6.80;;;16.10;99.90;;;16.18;75.60;101156.31;5027498;28;20455;-73
2022/07/23 03:24:57;;;;;;;8.73;5.47;;;16.10;99.90;;;16.21;75.12;101157.75;5011284;28;20464;-70
2022/07/23 03:27:33;;;;;;;9.63;5.80;;;16.10;99.90;;;16.21;74.90;101157.75;5009820;28;20444;-71
2022/07/23 03:30:03;;;;;;;6.73;5.80;;;16.10;99.90;;;16.23;74.29;101155.63;5026306;28;21152;-70
2022/07/23 03:32:32;;;;;;;7.30;5.37;;;16.10;99.90;;;16.14;74.06;101146.09;5024038;28;20475;-71
2022/07/23 03:35:02;;;;;;;5.17;4.67;;;16.00;99.90;;;16.16;74.14;101154.91;5023297;28;20472;-70
2022/07/23 03:37:31;;;;;;;7.93;5.33;;;16.00;99.90;;;16.19;73.28;101168.91;5009028;28;20959;-70
2022/07/23 03:40:01;;;;;;;7.50;5.10;;;16.00;99.90;;;16.28;72.64;101180.31;5003670;28;20439;-71
2022/07/23 03:42:30;;;;;;;7.33;5.07;;;16.10;99.90;;;16.25;71.58;101180.81;5013371;28;21013;-71
2022/07/23 03:44:59;;;;;;;7.03;4.33;;;16.10;99.90;;;16.26;71.18;101174.28;5025381;28;20446;-72
2022/07/23 03:47:28;;;;;;;6.67;4.10;;;16.10;99.90;;;16.32;70.71;101176.91;5028230;28;20436;-72
2022/07/23 03:49:57;;;;;;;7.17;4.53;;;16.10;99.90;;;16.30;70.19;101175.47;5029274;28;20565;-71
2022/07/23 03:52:27;;;;;;;4.73;3.53;;;16.10;99.90;;;16.40;69.49;101178.47;5011011;28;20651;-71
2022/07/23 03:54:55;;;;;;;3.70;3.13;;;16.20;99.90;;;16.37;69.02;101178.94;5028852;28;20852;-71
2022/07/23 03:57:25;;;;;;;5.23;3.77;;;16.20;99.90;;;16.43;68.99;101191.66;5027657;28;20440;-71
2022/07/23 03:59:54;;;;;;;4.70;4.00;;;16.20;99.90;;;16.68;67.68;101203.28;5027931;28;20523;-71
2022/07/23 04:02:23;;;;;;;5.70;3.13;;;16.40;99.90;;;16.65;67.20;101206.50;5029532;28;20472;-72
2022/07/23 04:04:52;;;;;;;8.47;3.60;;;16.40;99.90;;;16.67;66.53;101187.09;5031074;28;20463;-73
2022/07/23 04:07:21;;;;;;;10.27;3.10;;;16.50;99.90;;;16.76;66.22;101185.69;5015568;28;21013;-71
2022/07/23 04:09:51;;;;;;;6.57;4.40;;;16.50;99.40;;;16.66;66.53;101194.47;5032602;28;20455;-72
2022/07/23 04:12:20;;;;;;;6.73;3.70;;;16.50;99.50;;;16.57;66.19;101179.44;5030306;28;20476;-72
2022/07/23 04:14:49;;;;;;;4.20;3.50;;;16.40;98.80;;;16.65;66.17;101165.50;5015389;28;20527;-71
2022/07/23 04:17:18;;;;;;;3.63;2.80;;;16.50;98.50;;;16.54;66.31;101147.16;5014663;28;20582;-71
2022/07/23 04:19:47;;;;;;;4.20;2.80;;;16.40;98.40;;;16.57;66.60;101168.53;5026300;28;20444;-70
2022/07/23 04:22:19;;;;;;;3.73;2.07;;;16.40;99.00;;;16.56;66.68;101155.94;5028974;28;20541;-71
2022/07/23 04:24:49;;;;;;;3.20;2.63;;;16.40;99.00;;;16.47;67.10;101163.63;5032410;28;20546;-71
2022/07/23 04:27:19;;;;;;;4.83;2.60;;;16.40;99.80;;;16.51;67.12;101174.91;5030805;28;20441;-71
2022/07/23 04:29:49;;;;;;;6.63;2.67;;;16.40;99.90;;;16.42;68.50;101177.16;5024810;28;20535;-69
2022/07/23 04:32:17;;;;;;;3.97;2.73;;;16.30;99.90;;;16.41;68.81;101158.31;5028064;28;20572;-69
2022/07/23 04:34:47;;;;;;;4.20;2.50;;;16.30;99.90;;;16.33;69.38;101155.88;5011217;28;20443;-69
2022/07/23 04:37:16;;;;;;;5.83;3.00;;;16.30;99.90;;;16.35;69.87;101137.38;5036022;28;20427;-71
2022/07/23 04:39:45;;;;;;;4.60;2.83;;;16.20;99.90;;;16.25;71.23;101148.88;5030394;28;20509;-69
2022/07/23 04:42:14;;;;;;;7.27;2.77;;;16.20;99.90;;;15.90;73.20;101186.94;5012156;28;20444;-70
2022/07/23 04:44:44;;;;;;;5.53;3.70;;;16.10;99.90;;;15.81;77.15;101201.97;5027076;28;20884;-68
2022/07/23 04:47:14;;;;;;;5.27;3.30;;;15.90;99.90;;;15.55;76.07;101207.75;5025513;28;20444;-67
2022/07/23 04:49:45;;;;;;;5.60;2.80;;;15.70;99.90;;;15.44;77.96;101212.00;5013538;28;20455;-69
2022/07/23 04:52:15;;;;;;;4.17;3.13;;;15.60;99.90;;;15.34;78.75;101187.19;5027164;28;20476;-68
2022/07/23 04:54:44;;;;;;;5.60;2.97;;;15.40;99.90;;;15.20;80.08;101205.56;5024355;28;20452;-68
2022/07/23 04:57:13;;;;;;;4.90;3.83;;;15.30;99.90;;;15.18;80.98;101212.31;5028943;28;20462;-69
2022/07/23 04:59:44;;;;;;;3.60;3.03;;;15.20;99.90;;;15.33;80.91;101206.50;5030040;28;20487;-68
2022/07/23 05:02:13;;;;;;;8.00;3.33;;;15.30;99.90;;;15.28;80.88;101214.50;5012882;28;20870;-69
2022/07/23 05:04:42;;;;;;;3.27;2.97;;;15.20;99.90;;;15.21;80.03;101223.59;5010894;28;20547;-68
2022/07/23 05:07:13;;;;;;;5.93;3.20;;;15.20;99.90;;;15.20;80.49;101213.72;5024484;28;20440;-68
2022/07/23 05:09:42;;;;;;;6.20;3.33;;;15.20;99.90;;;15.17;80.74;101211.47;5014898;28;20447;-69
2022/07/23 05:12:10;;;;;;;6.20;3.50;;;15.20;99.90;;;15.13;81.45;101185.72;5009398;28;20460;-67
2022/07/23 05:14:43;;;;;;;8.00;3.03;;;15.10;99.90;;;15.16;82.67;101184.44;5026072;28;20433;-67
2022/07/23 05:17:12;;;;;;;5.87;3.50;;;15.10;99.90;;;15.16;82.69;101179.81;5010867;28;20440;-68
2022/07/23 05:19:42;;;;;;;3.43;3.10;;;15.10;99.90;;;15.11;82.74;101179.66;5023055;28;20437;-70
2022/07/23 05:22:10;;;;;;;4.37;3.77;;;15.10;99.90;;;15.10;83.05;101188.88;5009834;28;20459;-68
2022/07/23 05:24:39;;;;;;;5.90;3.67;;;15.10;99.90;;;15.28;83.42;101179.06;5024392;28;20535;-69
2022/07/23 05:27:09;;;;;;;7.67;3.67;;;15.10;99.90;;;15.39;82.95;101170.97;5008998;28;20582;-68
2022/07/23 05:29:47;;;;;;;9.50;3.73;;;15.20;99.90;;;15.47;82.60;101173.41;5011985;28;20459;-69
2022/07/23 05:32:16;;;;;;;5.57;3.23;;;15.30;99.90;;;15.37;81.82;101172.25;5008991;28;20484;-68
2022/07/23 05:34:52;;;;;;;6.73;3.63;;;15.30;99.90;;;15.49;81.46;101179.44;5006510;28;20466;-69
2022/07/23 05:37:21;;;;;;;5.30;4.03;;;15.30;99.90;;;15.43;82.15;101169.47;5029092;28;20463;-69
2022/07/23 05:39:49;;;;;;;3.60;3.30;;;15.30;99.90;;;15.55;81.53;101180.47;5026466;28;20448;-69
2022/07/23 05:42:19;;;;;;;3.87;3.47;;;15.40;99.90;;;15.57;80.72;101183.81;5009073;28;20442;-69
2022/07/23 05:44:49;;;;;;;6.20;3.50;;;15.40;99.90;;;15.42;80.57;101186.03;5021520;28;21024;-68
2022/07/23 05:47:18;;;;;;;5.07;2.63;;;15.40;99.90;;;15.41;81.67;101185.22;5023324;28;20475;-68
2022/07/23 05:49:47;;;;;;;6.67;5.73;;;15.40;99.90;;;15.59;81.06;101189.84;5005367;28;20423;-70
2022/07/23 05:52:39;;;;;;;6.33;3.97;;;15.40;99.90;;;15.77;81.15;101187.13;5029393;28;20471;-69
2022/07/23 05:55:31;;;;;;;5.20;4.70;;;15.40;99.90;;;15.78;80.74;101199.69;5015305;28;20809;-70
2022/07/23 05:58:00;;;;;;;5.00;3.17;;;15.50;99.90;;;15.92;80.95;101205.84;5025728;28;20517;-70
2022/07/23 06:00:31;;;;;;;4.80;3.37;;;15.60;99.90;;;16.04;82.86;101217.63;5027123;28;21146;-68
2022/07/23 06:03:00;;;;;;;7.10;4.30;;;15.70;99.90;;;15.90;81.54;101208.78;5026486;28;20565;-68
2022/07/23 06:05:31;;;;;;;4.27;3.60;;;15.60;99.90;;;15.91;81.67;101215.09;5019994;28;20452;-69
2022/07/23 06:08:00;;;;;;;4.27;3.50;;;15.60;99.90;;;16.03;82.20;101233.16;5024587;28;21101;-71
2022/07/23 06:10:29;;;;;;;4.93;3.53;;;15.80;99.90;;;15.83;83.63;101229.84;5009515;28;20908;-69
2022/07/23 06:12:57;;;;;;;4.60;3.87;;;15.60;99.90;;;15.84;82.56;101214.31;5028277;28;20533;-69
2022/07/23 06:15:32;;;;;;;6.53;3.10;;;15.60;99.90;;;15.86;80.23;101198.56;5027887;28;20510;-70
2022/07/23 06:18:01;;;;;;;6.80;4.33;;;15.60;99.90;;;15.84;80.51;101185.13;5011926;28;20743;-68
2022/07/23 06:20:30;;;;;;;6.30;4.53;;;15.60;99.90;;;15.76;80.74;101169.09;5011803;28;20543;-70
2022/07/23 06:22:59;;;;;;;4.63;4.23;;;15.70;99.90;;;15.67;82.18;101170.47;5029527;28;20439;-70
2022/07/23 06:25:29;;;;;;;6.90;4.20;;;15.60;99.90;;;15.73;82.74;101182.38;5026814;28;20639;-68
2022/07/23 06:27:58;;;;;;;5.27;3.97;;;15.60;99.90;;;15.74;82.90;101195.75;5012932;28;20450;-67
2022/07/23 06:30:28;;;;;;;5.93;4.57;;;15.50;99.90;;;15.84;82.33;101196.06;5011039;28;20539;-68
2022/07/23 06:32:58;;;;;;;4.10;3.60;;;15.50;99.90;;;15.76;82.34;101188.19;5026151;28;20525;-69
2022/07/23 06:35:27;;;;;;;5.27;4.17;;;15.50;99.90;;;15.87;82.67;101192.03;5025566;28;20451;-69
2022/07/23 06:37:56;;;;;;;4.47;4.07;;;15.50;99.90;;;15.94;82.63;101185.41;5011357;28;20450;-68
2022/07/23 06:40:25;;;;;;;4.80;4.30;;;15.60;99.90;;;15.99;82.81;101171.91;5001328;28;20948;-68
2022/07/23 06:42:54;;;;;;;5.63;3.70;;;15.60;99.90;;;16.06;82.71;101171.84;5026554;28;20847;-69
2022/07/23 06:45:24;;;;;;;4.47;3.93;;;15.70;99.90;;;16.02;81.12;101182.38;5012373;28;20457;-69
2022/07/23 06:47:53;;;;;;;8.37;4.50;;;15.90;99.90;;;15.95;81.72;101176.19;5026925;28;20501;-69
2022/07/23 06:50:23;;;;;;;4.93;3.80;;;15.80;99.90;;;15.98;82.18;101167.50;5023843;28;20500;-69
2022/07/23 06:52:52;;;;;;;9.63;4.87;;;15.80;99.90;;;16.07;80.75;101160.66;5024483;28;20484;-69
2022/07/23 06:55:21;;;;;;;6.03;4.17;;;15.90;99.90;;;16.03;81.70;101148.53;5013016;28;20459;-69
2022/07/23 06:57:50;;;;;;;15.60;5.10;;;15.90;99.90;;;16.10;81.89;101159.38;5007938;28;20486;-69
2022/07/23 07:00:19;;;;;;;6.43;4.20;;;15.90;99.90;;;16.03;82.62;101158.63;5020238;28;20901;-68
2022/07/23 07:02:48;;;;;;;7.70;3.70;;;15.90;99.90;;;16.19;82.61;101163.44;5007662;28;20468;-69
2022/07/23 07:05:17;;;;;;;5.23;4.70;;;16.00;99.90;;;16.16;82.89;101160.34;5019513;28;20407;-69
2022/07/23 07:07:47;;;;;;;8.90;4.80;;;16.00;99.90;;;16.37;83.02;101174.31;5028142;28;20438;-70
2022/07/23 07:10:17;;;;;;;5.33;4.70;;;16.10;99.90;;;16.34;81.67;101168.47;5025658;28;20515;-68
2022/07/23 07:12:46;;;;;;;3.50;3.20;;;16.10;99.90;;;16.36;81.81;101180.00;5024143;28;20828;-69
2022/07/23 07:15:15;;;;;;;5.90;5.30;;;16.10;99.90;;;16.56;82.42;101199.63;5024736;28;20536;-70
2022/07/23 07:17:44;;;;;;;8.50;3.63;;;16.20;99.90;;;16.78;78.37;101203.53;5020990;28;20443;-70
2022/07/23 07:20:12;;;;;;;4.40;4.00;;;16.50;99.90;;;16.85;79.06;101206.97;5018989;28;20479;-68
2022/07/23 07:22:41;;;;;;;4.53;4.03;;;16.50;99.90;;;17.00;79.73;101213.88;5023467;28;20555;-70
2022/07/23 07:25:12;;;;;;;6.47;4.47;;;16.60;99.90;;;17.22;79.74;101214.97;5023711;28;20440;-69
2022/07/23 07:27:40;;;;;;;7.20;4.03;;;16.80;99.90;;;17.27;79.06;101217.81;5023563;28;20480;-70
2022/07/23 07:30:12;;;;;;;4.97;4.00;;;16.90;99.90;;;17.25;77.97;101233.63;5024065;28;20516;-69
2022/07/23 07:32:41;;;;;;;12.80;4.90;;;16.90;99.90;;;17.28;80.14;101219.50;5018475;28;20997;-69
2022/07/23 07:35:26;;;;;;;4.70;4.20;;;16.80;99.90;;;17.34;78.08;101216.63;5024121;28;20771;-68
2022/07/23 07:37:55;;;;;;;7.00;4.23;;;17.00;99.90;;;17.58;78.28;101220.16;5024542;28;20506;-72
2022/07/23 07:40:26;;;;;;;8.40;4.00;;;17.20;99.90;;;17.61;76.13;101217.00;5024866;28;20484;-69
2022/07/23 07:43:03;;;;;;;12.13;5.10;;;17.20;99.90;;;17.70;74.33;101212.81;5022868;28;20461;-70
2022/07/23 07:45:32;;;;;;;6.93;4.50;;;17.40;99.90;;;17.85;74.79;101209.56;5025601;28;20395;-69
2022/07/23 07:48:01;;;;;;;3.77;3.27;;;17.30;99.90;;;17.91;75.08;101207.75;5026676;28;20476;-71
2022/07/23 07:50:29;;;;;;;5.93;4.00;;;17.50;99.90;;;18.13;75.10;101203.25;5025426;28;20509;-70
2022/07/23 07:52:58;;;;;;;5.50;3.80;;;17.50;99.90;;;18.11;72.33;101205.41;5023927;28;20452;-69
2022/07/23 07:55:29;;;;;;;5.40;4.30;;;17.50;99.90;;;18.04;71.35;101191.03;5021927;28;20440;-69
2022/07/23 07:57:57;;;;;;;4.83;4.33;;;17.70;99.90;;;18.00;71.11;101187.13;5021020;28;20417;-70
2022/07/23 08:00:30;;;;;;;6.63;3.30;;;17.60;99.90;;;17.99;73.47;101177.25;5024847;28;20454;-69
2022/07/23 08:03:00;;;;;;;5.30;3.70;;;17.60;99.90;;;18.04;71.42;101174.59;5020802;28;20647;-70
2022/07/23 08:05:32;;;;;;;3.53;3.20;;;17.70;99.90;;;18.13;70.44;101181.34;5027538;28;20433;-70
2022/07/23 08:08:01;;;;;;;8.53;3.50;;;17.70;99.90;;;18.47;71.11;101182.25;5021217;28;20499;-71
2022/07/23 08:10:32;;;;;;;5.23;3.47;;;18.00;99.90;;;18.77;67.29;101190.19;5020411;28;20463;-70
2022/07/23 08:13:01;;;;;;;4.57;2.60;;;18.30;99.90;;;18.67;68.04;101175.25;5024310;28;20953;-71
2022/07/23 08:15:31;;;;;;;4.93;2.80;;;18.30;99.90;;;18.89;69.02;101183.53;5020099;28;20506;-70
2022/07/23 08:18:01;;;;;;;5.03;2.57;;;18.50;99.90;;;19.02;65.96;101182.38;5024864;28;20436;-70
2022/07/23 08:20:30;;;;;;;6.47;2.97;;;18.60;99.90;;;18.57;66.01;101188.78;5025914;28;20486;-71
2022/07/23 08:23:01;;;;;;;4.90;2.50;;;18.50;99.90;;;18.76;66.61;101183.88;5022646;28;20941;-70
2022/07/23 08:25:35;;;;;;;4.10;2.83;;;18.50;99.90;;;18.99;66.55;101188.34;5024614;28;20946;-70
2022/07/23 08:28:07;;;;;;;4.57;3.20;;;18.60;99.90;;;18.98;65.92;101172.97;5026744;28;20545;-71
2022/07/23 08:30:38;;;;;;;4.40;2.63;;;18.70;99.90;;;18.93;64.57;101183.84;5024827;28;20423;-70
2022/07/23 08:33:12;;;;;;;5.03;3.83;;;18.70;98.10;;;19.04;66.07;101192.00;5021767;28;20468;-70
2022/07/23 08:36:03;;;;;;;4.73;2.63;;;18.70;99.90;;;19.26;64.57;101189.31;5031199;28;20452;-69
2022/07/23 08:38:35;;;;;;;5.60;3.20;;;18.90;99.30;;;19.39;63.42;101179.88;5025858;28;20443;-71
2022/07/23 08:41:08;;;;;;;7.50;3.60;;;19.10;96.50;;;19.43;62.83;101173.63;5024501;28;20417;-72
2022/07/23 08:43:37;;;;;;;5.23;4.73;;;19.20;93.80;;;19.32;64.27;101182.81;5030168;28;20485;-71
2022/07/23 08:46:06;;;;;;;5.33;3.60;;;19.20;95.20;;;19.16;64.61;101182.84;5030034;28;20410;-71
2022/07/23 08:48:37;;;;;;;6.80;3.47;;;19.00;95.70;;;19.31;64.75;101185.81;5032469;28;20457;-70
2022/07/23 08:51:10;;;;;;;10.30;3.67;;;19.10;97.20;;;19.68;62.78;101186.06;5026570;28;20440;-71
2022/07/23 08:53:40;;;;;;;4.10;2.90;;;19.30;93.60;;;20.00;62.53;101177.94;5030750;28;20937;-71
2022/07/23 08:56:11;;;;;;;8.43;3.53;;;19.50;94.10;;;20.32;60.83;101187.94;5027683;28;20468;-71
2022/07/23 08:58:40;;;;;;;6.50;3.00;;;19.90;90.60;;;20.27;60.37;101176.88;5029339;28;20415;-71
2022/07/23 09:01:08;;;;;;;2.90;2.50;;;20.00;75.80;;;20.58;60.05;101177.16;5023615;28;20466;-71
2022/07/23 09:03:39;;;;;;;3.77;3.20;;;20.10;77.40;;;20.21;59.92;101174.31;5024815;28;20779;-70
2022/07/23 09:06:08;;;;;;;3.80;3.33;;;20.00;67.70;;;20.16;61.02;101166.84;5031190;28;20446;-71
2022/07/23 09:08:39;;;;;;;7.90;3.30;;;20.10;72.20;;;20.11;62.18;101164.06;5037180;28;20921;-71
2022/07/23 09:11:11;;;;;;;4.90;3.50;;;20.00;80.20;;;20.30;61.24;101173.63;5038394;28;20418;-71
2022/07/23 09:13:43;;;;;;;6.33;2.87;;;20.10;80.60;;;20.67;61.29;101183.88;5038757;28;21092;-71
2022/07/23 09:16:15;;;;;;;3.47;3.17;;;20.20;82.70;;;20.87;59.02;101192.28;5038942;28;20419;-71
2022/07/23 09:18:49;;;;;;;4.10;3.37;;;20.40;69.10;;;20.92;57.27;101203.31;5035092;28;20423;-71
2022/07/23 09:21:22;;;;;;;7.33;3.13;;;20.50;58.70;;;20.51;59.27;101193.91;5029873;28;20440;-71
2022/07/23 09:24:00;;;;;;;4.60;4.03;;;20.40;59.30;;;20.93;59.55;101193.16;5029804;28;20478;-70
2022/07/23 09:26:35;;;;;;;7.07;3.93;;;20.60;64.50;;;21.35;58.24;101195.97;5027609;28;20450;-71
2022/07/23 09:29:12;;;;;;;4.83;4.23;;;20.90;62.00;;;21.89;57.33;101197.31;5027118;28;20456;-71
2022/07/23 09:31:51;;;;;;;8.33;4.63;;;21.20;57.50;;;22.11;56.16;101205.41;5026489;28;20464;-71
2022/07/23 09:34:23;;;;;;;5.57;3.30;;;21.60;51.10;;;22.21;55.15;101208.22;5033948;28;20442;-72
2022/07/23 09:36:54;;;;;;;5.93;3.97;;;21.70;44.50;;;22.17;53.38;101203.50;5029629;28;20440;-71
2022/07/23 09:39:29;;;;;;;6.53;3.93;;;21.90;37.60;;;22.02;54.69;101207.88;5025355;28;20470;-70
2022/07/23 09:42:14;;;;;;;5.90;3.80;;;21.60;38.30;;;21.70;54.88;101220.91;5024041;28;20441;-70
2022/07/23 09:44:44;;;;;;;4.40;4.00;;;21.50;39.30;;;22.07;55.62;101216.13;5024605;28;20537;-70
2022/07/23 09:47:13;;;;;;;3.87;3.47;;;21.50;41.80;;;22.35;54.66;101219.53;5028086;28;21238;-72
2022/07/23 09:49:59;;;;;;;9.37;4.70;;;21.80;40.20;;;22.18;54.07;101211.50;5015684;28;20416;-71
2022/07/23 09:52:29;;;;;;;4.63;4.23;;;21.90;35.80;;;21.87;55.02;101221.56;5024196;28;20454;-71
2022/07/23 09:55:06;;;;;;;5.30;3.73;;;21.70;36.10;;;21.79;55.47;101205.53;5021562;28;20426;-71
2022/07/23 09:57:39;;;;;;;4.17;3.77;;;21.60;36.20;;;21.64;54.83;101210.97;5027442;28;20430;-71
2022/07/23 10:00:10;;;;;;;4.90;3.50;;;21.60;34.60;;;21.42;54.79;101202.88;5017008;28;20476;-71
2022/07/23 10:02:41;;;;;;;5.20;4.13;;;21.40;34.00;;;22.18;54.17;101214.25;5023464;28;20521;-70
2022/07/23 10:05:30;;;;;;;5.80;4.07;;;21.70;36.50;;;22.23;53.46;101216.19;5025145;28;21079;-70
2022/07/23 10:08:20;;;;;;;6.83;3.40;;;21.70;32.70;;;22.56;52.33;101223.97;5022965;28;21000;-70
2022/07/23 10:11:12;;;;;;;3.63;3.20;;;22.20;31.80;;;22.12;54.45;101225.53;5027384;28;20802;-72
2022/07/23 10:14:07;;;;;;;4.63;3.70;;;21.90;32.10;;;22.70;52.80;101230.66;5026014;28;20472;-70
2022/07/23 10:16:52;;;;;;;3.73;3.40;;;22.20;31.80;;;22.27;53.69;101231.09;5007636;28;20829;-71
2022/07/23 10:19:22;;;;;;;6.73;2.80;;;22.00;30.00;;;22.06;54.07;101236.56;5029024;28;20775;-69
2022/07/23 10:21:58;;;;;;;4.80;3.63;;;21.80;30.30;;;22.06;53.14;101241.22;5023321;28;20501;-70
2022/07/23 10:24:54;;;;;;;4.53;3.33;;;21.70;30.00;;;22.09;53.47;101237.91;5026776;28;20460;-70
2022/07/23 10:27:53;;;;;;;4.03;3.30;;;21.60;30.20;;;21.91;53.67;101230.13;5027168;28;20433;-70
2022/07/23 10:30:37;;;;;;;4.87;3.30;;;21.60;28.70;;;22.56;53.08;101235.00;5023142;28;20665;-72